Time;durP1;ratioP1;P1;durP2;ratioP2;P2;SDS_P1;SDS_P2;PMS_P1;PMS_P2;Temp;Humidity;BMP_temperature;BMP_pressure;BME280_temperature;BME280_humidity;BME280_pressure;Samples;Min_cycle;Max_cycle;Signal;HPM_P1;HPM_P2
2021/01/03 00:02:03;;;;;;;10.23;7.20;;;;;;;10.65;41.18;102249.31;5112850;28;20020;-72
2021/01/03 00:04:29;;;;;;;10.20;6.90;;;;;;;10.62;41.41;102254.53;5112968;28;20047;-72
2021/01/03 00:06:55;;;;;;;13.33;6.93;;;;;;;10.59;41.55;102255.91;5112839;28;20256;-72
2021/01/03 00:09:22;;;;;;;11.13;6.80;;;;;;;10.56;41.40;102260.00;5112807;28;20487;-72
2021/01/03 00:11:48;;;;;;;9.63;6.43;;;;;;;10.61;41.31;102261.91;5094612;28;20076;-72
2021/01/03 00:14:13;;;;;;;11.07;7.10;;;;;;;10.64;41.14;102261.34;5112744;28;20036;-72
2021/01/03 00:16:39;;;;;;;10.93;7.00;;;;;;;10.62;41.31;102265.47;5112840;28;20108;-72
2021/01/03 00:19:06;;;;;;;12.53;6.40;;;;;;;10.83;40.86;102264.31;5112771;28;20028;-72
2021/01/03 00:21:32;;;;;;;11.80;6.40;;;;;;;10.88;40.71;102264.28;5094238;28;20024;-74
2021/01/03 00:23:58;;;;;;;9.43;6.33;;;;;;;10.91;40.59;102261.03;5112790;28;20046;-72
2021/01/03 00:26:23;;;;;;;9.50;5.90;;;;;;;10.78;40.78;102258.88;5094524;28;20669;-72
2021/01/03 00:28:49;;;;;;;8.33;5.43;;;;;;;10.63;41.29;102256.16;5112797;28;20019;-72
2021/01/03 00:31:15;;;;;;;12.77;6.60;;;;;;;10.67;41.28;102254.53;5112566;28;20036;-71
2021/01/03 00:33:41;;;;;;;11.23;5.80;;;;;;;10.63;41.38;102248.78;5112913;28;20377;-72
2021/01/03 00:36:07;;;;;;;10.00;5.53;;;;;;;10.62;41.37;102252.63;5112614;28;20103;-71
2021/01/03 00:38:33;;;;;;;8.57;5.60;;;;;;;10.66;41.12;102247.44;5111931;28;20048;-71
2021/01/03 00:40:58;;;;;;;9.30;5.80;;;;;;;10.65;41.27;102262.16;5112276;28;20035;-75
2021/01/03 00:43:25;;;;;;;10.07;6.07;;;;;;;10.64;41.21;102255.88;5093928;28;20019;-72
2021/01/03 00:45:52;;;;;;;8.87;5.97;;;;;;;10.90;40.78;102250.38;5111856;28;20424;-71
2021/01/03 00:48:18;;;;;;;13.97;6.00;;;;;;;10.95;40.45;102262.09;5112329;28;20134;-73
2021/01/03 00:50:44;;;;;;;11.57;7.30;;;;;;;10.70;41.00;102264.91;5112058;28;20509;-74
2021/01/03 00:53:10;;;;;;;10.13;6.00;;;;;;;10.70;41.16;102262.97;5112331;28;20024;-71
2021/01/03 00:55:35;;;;;;;7.10;5.03;;;;;;;10.69;41.34;102263.25;5112668;28;20045;-71
2021/01/03 00:58:01;;;;;;;7.60;5.13;;;;;;;10.66;41.20;102272.03;5094124;28;20571;-71
2021/01/03 01:00:30;;;;;;;10.93;5.20;;;;;;;10.63;40.96;102264.38;5112373;28;20474;-73
2021/01/03 01:02:56;;;;;;;8.57;5.70;;;;;;;10.65;41.11;102267.63;5094064;28;20027;-72
2021/01/03 01:05:22;;;;;;;9.93;5.60;;;;;;;10.62;41.33;102260.81;5112398;28;20027;-72
2021/01/03 01:07:48;;;;;;;10.77;5.97;;;;;;;10.69;41.01;102263.25;5093965;28;20031;-72
2021/01/03 01:10:21;;;;;;;9.80;5.73;;;;;;;10.70;41.23;102264.91;5111775;28;20035;-72
2021/01/03 01:12:51;;;;;;;10.53;5.93;;;;;;;10.69;41.06;102261.34;5094100;28;20028;-72
2021/01/03 01:15:18;;;;;;;7.70;5.60;;;;;;;10.68;41.24;102267.91;5097803;28;20507;-72
2021/01/03 01:17:52;;;;;;;10.50;5.60;;;;;;;10.64;41.48;102268.72;5097787;28;20095;-72
2021/01/03 01:20:23;;;;;;;8.77;6.20;;;;;;;10.63;41.52;102259.72;5115636;28;20027;-71
2021/01/03 01:22:49;;;;;;;14.00;6.03;;;;;;;10.43;42.13;102263.31;5097725;28;20086;-72
2021/01/03 01:25:18;;;;;;;14.27;5.50;;;;;;;10.51;42.17;102259.22;5115943;28;20027;-72
2021/01/03 01:27:44;;;;;;;8.40;5.37;;;;;;;10.40;42.70;102271.22;5115764;28;20055;-72
2021/01/03 01:30:11;;;;;;;9.83;5.20;;;;;;;10.28;43.04;102263.31;5115840;28;20023;-72
2021/01/03 01:32:37;;;;;;;9.63;6.20;;;;;;;10.14;43.52;102268.47;5115356;28;20493;-72
2021/01/03 01:35:06;;;;;;;11.60;5.77;;;;;;;10.54;42.96;102266.84;5115666;28;20053;-72
2021/01/03 01:37:32;;;;;;;8.83;5.30;;;;;;;10.36;43.36;102265.50;5115505;28;20101;-72
2021/01/03 01:39:57;;;;;;;8.40;5.63;;;;;;;10.74;42.51;102263.25;5115596;28;20035;-72
2021/01/03 01:42:23;;;;;;;9.80;5.23;;;;;;;10.67;42.83;102265.47;5115238;28;20036;-72
2021/01/03 01:44:48;;;;;;;6.70;4.57;;;;;;;10.55;43.28;102269.28;5115722;28;20024;-72
2021/01/03 01:47:18;;;;;;;9.00;5.60;;;;;;;10.59;43.40;102268.75;5097102;28;20020;-72
2021/01/03 01:49:45;;;;;;;9.75;5.70;;;;;;;10.88;42.54;102271.69;5115318;28;20493;-72
2021/01/03 01:52:15;;;;;;;8.77;5.60;;;;;;;10.99;42.20;102265.09;5115393;28;20051;-72
2021/01/03 01:54:45;;;;;;;7.82;5.60;;;;;;;10.96;42.56;102271.97;5115297;28;20034;-72
2021/01/03 01:57:26;;;;;;;11.17;5.37;;;;;;;11.11;41.98;102263.69;5115081;28;20054;-72
2021/01/03 01:59:58;;;;;;;8.50;5.40;;;;;;;11.43;41.26;102272.59;5115187;28;20447;-72
2021/01/03 02:02:48;;;;;;;7.90;5.00;;;;;;;11.51;41.17;102272.81;5115042;28;20092;-72
2021/01/03 02:05:32;;;;;;;;;;;;;;;11.38;41.38;102266.03;5115474;28;20035;-72
2021/01/03 02:08:12;;;;;;;6.63;4.60;;;;;;;11.28;41.45;102262.53;5115015;28;19943;-72
2021/01/03 02:10:46;;;;;;;;;;;;;;;11.47;41.00;102262.69;5115465;28;20027;-72
2021/01/03 02:13:23;;;;;;;6.40;4.57;;;;;;;11.56;40.64;102271.94;5114937;28;19911;-72
2021/01/03 02:15:51;;;;;;;9.40;6.00;;;;;;;11.49;40.84;102261.34;5096689;28;20107;-72
2021/01/03 02:18:17;;;;;;;9.87;5.97;;;;;;;11.37;40.94;102269.88;5114663;28;20108;-72
2021/01/03 02:21:01;;;;;;;8.10;4.90;;;;;;;11.36;41.10;102261.94;5114642;28;20050;-72
2021/01/03 02:23:39;;;;;;;8.00;4.57;;;;;;;11.31;41.10;102259.22;5096390;28;20075;-72
2021/01/03 02:26:07;;;;;;;7.43;4.83;;;;;;;11.34;40.98;102261.41;5113718;28;20038;-72
2021/01/03 02:28:39;;;;;;;6.67;4.57;;;;;;;11.35;41.10;102266.59;5114661;28;20030;-72
2021/01/03 02:31:06;;;;;;;7.00;4.67;;;;;;;11.39;41.00;102270.41;5114602;28;20071;-71
2021/01/03 02:33:41;;;;;;;6.60;4.43;;;;;;;11.03;41.65;102274.38;5114485;28;20039;-72
2021/01/03 02:36:32;;;;;;;8.20;5.90;;;;;;;11.27;41.08;102274.59;5114798;28;20026;-72
2021/01/03 02:39:24;;;;;;;7.83;5.03;;;;;;;11.24;41.04;102267.72;5114213;28;20075;-72
2021/01/03 02:41:54;;;;;;;6.37;4.57;;;;;;;11.09;41.53;102279.53;5114259;28;20024;-72
2021/01/03 02:44:20;;;;;;;6.90;3.90;;;;;;;11.24;41.13;102269.66;5114221;28;20028;-72
2021/01/03 02:46:46;;;;;;;7.83;4.73;;;;;;;11.19;41.13;102272.44;5114225;28;20027;-72
2021/01/03 02:49:12;;;;;;;8.43;4.83;;;;;;;11.12;41.11;102267.25;5113834;28;20118;-72
2021/01/03 02:51:39;;;;;;;8.27;4.90;;;;;;;11.06;41.21;102266.44;5114205;28;20034;-72
2021/01/03 02:54:06;;;;;;;8.60;4.73;;;;;;;10.93;41.96;102268.94;5114141;28;20606;-72
2021/01/03 02:56:32;;;;;;;8.17;4.60;;;;;;;11.15;41.42;102265.84;5113965;28;20027;-72
2021/01/03 02:58:58;;;;;;;8.57;4.67;;;;;;;10.95;41.32;102272.22;5114059;28;20035;-72
2021/01/03 03:01:24;;;;;;;6.57;4.20;;;;;;;10.88;41.85;102266.22;5114010;28;20024;-72
2021/01/03 03:03:49;;;;;;;8.60;4.70;;;;;;;11.02;41.44;102270.00;5113645;28;20031;-72
2021/01/03 03:06:15;;;;;;;8.53;5.47;;;;;;;11.22;40.84;102272.66;5113510;28;20034;-72
2021/01/03 03:08:41;;;;;;;8.90;4.90;;;;;;;11.07;41.37;102267.25;5113902;28;20381;-72
2021/01/03 03:11:07;;;;;;;7.67;4.70;;;;;;;11.18;40.91;102274.31;5113742;28;20023;-72
2021/01/03 03:13:32;;;;;;;7.43;4.90;;;;;;;11.24;40.59;102272.38;5113740;28;20084;-71
2021/01/03 03:15:58;;;;;;;10.70;5.07;;;;;;;11.21;40.88;102270.22;5095480;28;20048;-72
2021/01/03 03:18:24;;;;;;;8.53;4.90;;;;;;;10.95;40.92;102273.03;5113680;28;20111;-72
2021/01/03 03:20:49;;;;;;;15.20;5.73;;;;;;;11.17;40.85;102278.16;5113587;28;20084;-72
2021/01/03 03:23:15;;;;;;;8.03;5.57;;;;;;;11.18;40.78;102271.56;5113774;28;20107;-72
2021/01/03 03:25:40;;;;;;;7.57;5.30;;;;;;;11.21;40.77;102275.69;5113567;28;20027;-72
2021/01/03 03:28:06;;;;;;;8.50;6.27;;;;;;;11.17;40.78;102269.94;5113530;28;20382;-71
2021/01/03 03:30:32;;;;;;;8.43;5.63;;;;;;;11.25;40.44;102272.09;5113019;28;20383;-72
2021/01/03 03:32:58;;;;;;;8.07;5.57;;;;;;;11.06;40.96;102265.63;5113148;28;20031;-71
2021/01/03 03:35:30;;;;;;;9.03;6.20;;;;;;;11.15;40.61;102268.59;5112690;28;20027;-72
2021/01/03 03:37:57;;;;;;;14.27;7.23;;;;;;;11.15;40.75;102274.06;5112895;28;20055;-72
2021/01/03 03:40:23;;;;;;;7.60;5.97;;;;;;;11.09;40.91;102268.59;5113223;28;20039;-72
2021/01/03 03:42:50;;;;;;;8.87;5.27;;;;;;;11.07;40.72;102270.00;5112826;28;20023;-72
2021/01/03 03:45:16;;;;;;;11.07;6.07;;;;;;;11.06;40.81;102274.66;5112197;28;20027;-72
2021/01/03 03:47:41;;;;;;;10.87;5.90;;;;;;;11.06;40.68;102263.72;5113158;28;20028;-72
2021/01/03 03:50:12;;;;;;;8.53;5.50;;;;;;;10.96;40.83;102268.41;5113028;28;20490;-72
2021/01/03 03:52:37;;;;;;;8.90;5.90;;;;;;;10.87;41.03;102270.88;5112752;28;20023;-72
2021/01/03 03:55:04;;;;;;;7.93;5.50;;;;;;;10.86;41.23;102268.41;5113102;28;20061;-72
2021/01/03 03:57:30;;;;;;;15.97;6.13;;;;;;;10.89;41.10;102263.22;5113020;28;20026;-71
2021/01/03 03:59:55;;;;;;;9.13;5.67;;;;;;;10.90;41.17;102269.50;5113007;28;20027;-72
2021/01/03 04:02:21;;;;;;;11.90;6.73;;;;;;;10.79;41.41;102265.97;5112929;28;20391;-72
2021/01/03 04:04:46;;;;;;;8.93;5.60;;;;;;;10.80;41.12;102267.59;5113031;28;20059;-72
2021/01/03 04:07:12;;;;;;;9.50;5.97;;;;;;;10.79;41.02;102269.53;5112991;28;20028;-72
2021/01/03 04:09:38;;;;;;;9.67;5.77;;;;;;;10.93;40.74;102275.22;5112716;28;20428;-72
2021/01/03 04:12:04;;;;;;;6.80;5.57;;;;;;;10.98;40.53;102277.13;5112891;28;20032;-72
2021/01/03 04:14:30;;;;;;;7.80;5.70;;;;;;;10.99;40.57;102271.38;5112881;28;20027;-72
2021/01/03 04:16:58;;;;;;;9.77;5.13;;;;;;;10.95;40.39;102272.22;5094299;28;20536;-72
2021/01/03 04:19:25;;;;;;;8.97;5.83;;;;;;;10.92;40.41;102278.25;5112799;28;20442;-72
2021/01/03 04:21:55;;;;;;;7.50;5.97;;;;;;;10.85;40.21;102275.81;5112874;28;20140;-72
2021/01/03 04:24:21;;;;;;;9.43;5.53;;;;;;;10.87;40.09;102275.50;5112761;28;20028;-71
2021/01/03 04:26:56;;;;;;;8.80;5.03;;;;;;;10.78;40.48;102278.00;5112798;28;20039;-72
2021/01/03 04:29:22;;;;;;;7.73;5.17;;;;;;;10.78;40.44;102275.28;5112568;28;20024;-72
2021/01/03 04:31:56;;;;;;;11.33;6.53;;;;;;;10.74;40.16;102276.94;5112753;28;20494;-72
2021/01/03 04:34:23;;;;;;;8.10;4.90;;;;;;;10.70;40.48;102281.31;5112823;28;20035;-72
2021/01/03 04:36:51;;;;;;;8.17;5.33;;;;;;;10.67;40.43;102279.94;5112389;28;20106;-71
2021/01/03 04:39:18;;;;;;;7.23;4.73;;;;;;;10.68;40.63;102278.84;5112363;28;20028;-72
2021/01/03 04:41:44;;;;;;;8.23;5.40;;;;;;;10.68;40.67;102280.78;5094265;28;20042;-72
2021/01/03 04:44:23;;;;;;;10.57;5.17;;;;;;;10.67;40.22;102273.66;5112562;28;20471;-71
2021/01/03 04:46:49;;;;;;;7.83;5.07;;;;;;;10.69;40.54;102279.66;5112550;28;20070;-72
2021/01/03 04:49:27;;;;;;;7.10;4.80;;;;;;;10.67;40.18;102271.75;5114875;28;20072;-72
2021/01/03 04:52:26;;;;;;;9.93;5.23;;;;;;;10.57;40.10;102278.03;5098285;28;20023;-72
2021/01/03 04:55:23;;;;;;;7.65;4.93;;;;;;;10.49;40.32;102284.06;5098185;28;20027;-72
2021/01/03 04:57:55;;;;;;;7.80;4.63;;;;;;;10.47;40.23;102286.25;5114575;28;20027;-72
2021/01/03 05:00:25;;;;;;;8.27;4.70;;;;;;;10.24;40.85;102282.16;5116536;28;20038;-72
2021/01/03 05:03:26;;;;;;;10.23;5.03;;;;;;;10.15;41.14;102285.69;5115995;28;20046;-72
2021/01/03 05:05:52;;;;;;;8.70;4.60;;;;;;;10.14;40.93;102276.66;5111257;28;20035;-72
2021/01/03 05:08:36;;;;;;;7.13;4.30;;;;;;;10.08;41.25;102282.41;5116241;28;20020;-71
2021/01/03 05:11:06;;;;;;;7.60;4.53;;;;;;;10.10;41.16;102277.47;5116170;28;20062;-72
2021/01/03 05:13:54;;;;;;;7.40;4.33;;;;;;;10.11;41.27;102284.56;5116194;28;20389;-72
2021/01/03 05:16:21;;;;;;;6.23;3.67;;;;;;;10.11;41.28;102285.41;5116152;28;20049;-71
2021/01/03 05:18:47;;;;;;;6.17;4.13;;;;;;;10.12;41.45;102281.56;5115940;28;20028;-72
2021/01/03 05:21:12;;;;;;;5.37;3.53;;;;;;;10.17;41.31;102278.03;5115628;28;20500;-72
2021/01/03 05:23:40;;;;;;;6.13;3.73;;;;;;;10.21;41.44;102285.41;5115902;28;20124;-72
2021/01/03 05:26:24;;;;;;;7.40;4.27;;;;;;;10.19;41.63;102284.03;5115499;28;20028;-72
2021/01/03 05:28:54;;;;;;;6.40;3.67;;;;;;;10.24;41.46;102282.16;5115980;28;20020;-72
2021/01/03 05:31:23;;;;;;;10.03;4.50;;;;;;;10.29;41.63;102281.34;5115702;28;20027;-71
2021/01/03 05:33:52;;;;;;;5.47;3.60;;;;;;;10.34;41.60;102278.59;5115884;28;20106;-71
2021/01/03 05:36:36;;;;;;;6.43;3.20;;;;;;;10.35;41.67;102271.22;5115526;28;20106;-72
2021/01/03 05:39:10;;;;;;;5.67;3.70;;;;;;;10.38;41.33;102270.69;5115630;28;20039;-72
2021/01/03 05:41:45;;;;;;;32.00;7.00;;;;;;;10.30;41.49;102279.44;5115680;28;20027;-72
2021/01/03 05:44:26;;;;;;;8.80;4.10;;;;;;;10.23;41.76;102274.25;5115589;28;20032;-72
2021/01/03 05:47:05;;;;;;;5.90;3.40;;;;;;;10.31;41.05;102276.44;5097186;28;20611;-71
2021/01/03 05:49:30;;;;;;;6.17;3.10;;;;;;;10.33;41.44;102274.22;5115053;28;20032;-72
2021/01/03 05:52:12;;;;;;;5.27;3.30;;;;;;;10.35;41.65;102272.03;5115366;28;20039;-72
2021/01/03 05:54:39;;;;;;;5.77;3.03;;;;;;;10.32;41.69;102274.50;5114801;28;20036;-72
2021/01/03 05:57:08;;;;;;;6.07;3.37;;;;;;;10.34;41.45;102275.06;5114181;28;20031;-71
2021/01/03 05:59:38;;;;;;;7.63;3.53;;;;;;;10.32;41.49;102278.06;5115320;28;20027;-71
2021/01/03 06:02:17;;;;;;;7.35;4.07;;;;;;;10.24;41.28;102273.97;5115129;28;20019;-72
2021/01/03 06:04:43;;;;;;;6.80;3.53;;;;;;;10.37;41.31;102272.59;5115106;28;20034;-72
2021/01/03 06:07:18;;;;;;;8.30;3.80;;;;;;;10.34;40.79;102277.78;5115064;28;20391;-72
2021/01/03 06:09:45;;;;;;;9.17;3.83;;;;;;;10.36;40.93;102283.81;5114926;28;20175;-72
2021/01/03 06:12:20;;;;;;;6.30;3.83;;;;;;;10.27;40.68;102294.44;5096580;28;20020;-72
2021/01/03 06:14:52;;;;;;;6.93;3.37;;;;;;;10.22;40.76;102292.56;5096466;28;20377;-72
2021/01/03 06:17:28;;;;;;;7.43;4.10;;;;;;;10.12;40.54;102291.69;5114899;28;20023;-71
2021/01/03 06:20:00;;;;;;;6.50;4.00;;;;;;;10.06;40.82;102300.97;5114890;28;20065;-71
2021/01/03 06:22:48;;;;;;;6.83;4.17;;;;;;;9.96;40.62;102301.75;5096545;28;20096;-72
2021/01/03 06:25:29;;;;;;;6.40;3.70;;;;;;;9.95;40.70;102300.13;5064537;28;20042;-72
2021/01/03 06:28:04;;;;;;;9.10;4.00;;;;;;;9.92;40.83;102304.22;5114759;28;20102;-71
2021/01/03 06:30:32;;;;;;;7.50;4.07;;;;;;;9.97;40.79;102301.50;5114601;28;20077;-72
2021/01/03 06:33:23;;;;;;;7.40;3.73;;;;;;;9.90;40.89;102300.97;5114624;28;20027;-71
2021/01/03 06:35:57;;;;;;;6.53;3.57;;;;;;;9.97;40.65;102306.13;5114347;28;20051;-72
2021/01/03 06:38:43;;;;;;;11.10;3.50;;;;;;;9.97;40.84;102301.50;5114197;28;20063;-71
2021/01/03 06:41:21;;;;;;;6.80;3.40;;;;;;;9.98;40.58;102296.88;5114421;28;20028;-71
2021/01/03 06:44:14;;;;;;;6.10;3.47;;;;;;;9.96;40.65;102301.75;5114226;28;20027;-72
2021/01/03 06:47:01;;;;;;;5.63;3.40;;;;;;;10.00;40.56;102300.16;5114302;28;20027;-71
2021/01/03 06:49:59;;;;;;;6.13;3.03;;;;;;;9.99;40.62;102303.97;5114357;28;20034;-72
2021/01/03 06:53:02;;;;;;;4.60;3.07;;;;;;;9.93;40.48;102303.13;5041045;28;20045;-72
2021/01/03 06:55:33;;;;;;;10.00;3.40;;;;;;;9.79;40.99;102303.91;5114167;28;20028;-71
2021/01/03 06:58:08;;;;;;;4.13;2.77;;;;;;;9.80;40.83;102311.03;5114117;28;20165;-72
2021/01/03 07:00:48;;;;;;;4.73;3.10;;;;;;;9.80;40.96;102308.28;5113742;28;20035;-72
2021/01/03 07:03:28;;;;;;;4.60;2.97;;;;;;;9.82;40.88;102301.47;5114098;28;20402;-72
2021/01/03 07:05:59;;;;;;;5.40;3.50;;;;;;;9.70;40.96;102303.63;5114005;28;20047;-72
2021/01/03 07:08:28;;;;;;;6.13;3.17;;;;;;;9.77;41.03;102303.38;5095672;28;20024;-72
2021/01/03 07:10:54;;;;;;;4.45;2.80;;;;;;;9.86;40.85;102302.56;5113265;28;20036;-71
2021/01/03 07:13:28;;;;;;;7.13;3.57;;;;;;;9.80;40.87;102314.56;5113661;28;20355;-71
2021/01/03 07:15:57;;;;;;;4.50;2.90;;;;;;;9.71;41.23;102313.47;5113828;28;20023;-71
2021/01/03 07:18:25;;;;;;;7.33;3.20;;;;;;;9.78;40.89;102311.28;5113801;28;20527;-72
2021/01/03 07:21:03;;;;;;;4.87;3.07;;;;;;;9.80;41.12;102311.03;5113688;28;20015;-71
2021/01/03 07:23:37;;;;;;;5.43;3.30;;;;;;;9.73;41.25;102314.81;5113257;28;20111;-72
2021/01/03 07:26:22;;;;;;;5.40;2.83;;;;;;;9.91;40.80;102312.69;5113490;28;20012;-71
2021/01/03 07:29:16;;;;;;;4.97;3.17;;;;;;;9.84;40.87;102307.50;5113423;28;20020;-72
2021/01/03 07:31:41;;;;;;;4.83;2.80;;;;;;;9.80;41.52;102316.47;5113547;28;20081;-72
2021/01/03 07:34:11;;;;;;;5.30;2.90;;;;;;;9.95;41.26;102317.31;5095177;28;20050;-72
2021/01/03 07:36:53;;;;;;;7.67;3.43;;;;;;;10.02;41.60;102323.34;5113514;28;20405;-72
2021/01/03 07:39:21;;;;;;;4.80;2.83;;;;;;;10.14;41.69;102314.91;5113401;28;20432;-71
2021/01/03 07:41:48;;;;;;;5.27;2.63;;;;;;;10.28;41.62;102315.22;5113346;28;20024;-72
2021/01/03 07:44:20;;;;;;;5.13;2.33;;;;;;;10.32;41.66;102321.78;5095083;28;20431;-72
2021/01/03 07:46:47;;;;;;;4.67;2.40;;;;;;;10.34;41.76;102321.50;5094628;28;20494;-72
2021/01/03 07:49:23;;;;;;;6.43;2.30;;;;;;;10.41;41.65;102327.50;5113327;28;20059;-72
2021/01/03 07:51:49;;;;;;;66.10;57.07;;;;;;;10.50;41.57;102332.19;5113096;28;20026;-71
2021/01/03 07:54:15;;;;;;;26.33;23.73;;;;;;;10.55;41.40;102329.44;5113243;28;20026;-72
2021/01/03 07:56:41;;;;;;;5.33;2.43;;;;;;;10.60;41.54;102320.41;5094804;28;20445;-71
2021/01/03 07:59:06;;;;;;;3.47;2.10;;;;;;;10.60;41.61;102325.88;5094875;28;20053;-71
2021/01/03 08:01:37;;;;;;;6.50;3.67;;;;;;;10.55;41.33;102328.59;5113246;28;20055;-72
2021/01/03 08:04:11;;;;;;;4.67;2.33;;;;;;;10.55;41.28;102328.59;5113052;28;20106;-72
2021/01/03 08:06:36;;;;;;;6.50;2.50;;;;;;;10.49;41.51;102329.69;5109388;28;20055;-74
2021/01/03 08:09:03;;;;;;;5.00;2.40;;;;;;;10.45;41.36;102325.88;5100657;28;20062;-72
2021/01/03 08:11:35;;;;;;;4.80;2.00;;;;;;;10.32;41.39;102326.41;5112405;28;20073;-71
2021/01/03 08:14:04;;;;;;;9.77;2.57;;;;;;;10.31;41.18;102327.53;5106239;28;20052;-74
2021/01/03 08:16:30;;;;;;;4.73;2.60;;;;;;;10.28;41.50;102326.97;5088953;28;20073;-71
2021/01/03 08:19:03;;;;;;;4.60;2.20;;;;;;;10.28;41.26;102340.63;5094542;28;20038;-71
2021/01/03 08:21:33;;;;;;;4.00;2.30;;;;;;;10.22;41.13;102333.53;5112544;28;20072;-71
2021/01/03 08:24:17;;;;;;;5.22;2.17;;;;;;;10.16;41.29;102336.50;5114873;28;20019;-71
2021/01/03 08:27:02;;;;;;;8.17;5.97;;;;;;;10.01;41.62;102334.56;5117383;28;20028;-71
2021/01/03 08:29:42;;;;;;;10.40;8.30;;;;;;;9.94;42.13;102334.81;5117154;28;20024;-74
2021/01/03 08:32:16;;;;;;;12.80;11.50;;;;;;;9.98;42.91;102335.91;5117218;28;20030;-71
2021/01/03 08:34:42;;;;;;;4.47;2.70;;;;;;;9.99;42.84;102337.56;5117009;28;20103;-74
2021/01/03 08:37:20;;;;;;;7.73;4.90;;;;;;;9.99;42.76;102336.75;5116536;28;20577;-73
2021/01/03 08:39:48;;;;;;;8.17;6.67;;;;;;;10.21;42.22;102339.25;5116843;28;20024;-73
2021/01/03 08:42:37;;;;;;;5.47;3.70;;;;;;;10.11;43.09;102339.19;5116691;28;20020;-72
2021/01/03 08:45:04;;;;;;;4.25;2.30;;;;;;;10.27;42.58;102347.16;5116344;28;20023;-72
2021/01/03 08:47:37;;;;;;;6.73;3.40;;;;;;;10.30;42.38;102342.28;5116604;28;20052;-71
2021/01/03 08:50:10;;;;;;;8.57;3.10;;;;;;;10.34;42.41;102344.16;5116595;28;20462;-72
2021/01/03 08:52:36;;;;;;;9.07;8.27;;;;;;;10.35;42.27;102356.75;5105057;28;20110;-71
2021/01/03 08:55:15;;;;;;;47.73;43.53;;;;;;;10.39;41.95;102352.38;5098300;28;20020;-73
2021/01/03 08:57:43;;;;;;;5.47;3.83;;;;;;;10.45;41.56;102351.31;5109130;28;20028;-72
2021/01/03 09:00:14;;;;;;;43.30;33.13;;;;;;;10.43;41.57;102363.59;5104850;28;20103;-71
2021/01/03 09:02:44;;;;;;;42.03;31.60;;;;;;;10.38;41.58;102358.13;5095500;28;20036;-71
2021/01/03 09:05:11;;;;;;;29.40;23.30;;;;;;;10.31;41.46;102361.13;5100975;28;20075;-72
2021/01/03 09:07:38;;;;;;;14.87;13.13;;;;;;;10.34;41.43;102365.22;5101194;28;20023;-71
2021/01/03 09:10:05;;;;;;;53.27;48.30;;;;;;;10.31;41.46;102377.50;5106914;28;20064;-71
2021/01/03 09:12:41;;;;;;;8.93;5.03;;;;;;;10.12;41.64;102374.44;5102183;28;20035;-71
2021/01/03 09:15:21;;;;;;;2.90;1.77;;;;;;;10.06;41.46;102370.06;5101630;28;20595;-71
2021/01/03 09:18:03;;;;;;;3.80;2.10;;;;;;;10.01;41.50;102367.31;5104465;28;20023;-71
2021/01/03 09:20:39;;;;;;;36.17;6.17;;;;;;;9.91;41.81;102362.66;5097783;28;20032;-71
2021/01/03 09:23:20;;;;;;;9.10;5.03;;;;;;;9.88;42.16;102365.09;5095668;28;20024;-72
2021/01/03 09:25:54;;;;;;;4.30;2.40;;;;;;;9.84;42.64;102366.75;5077294;28;20023;-70
2021/01/03 09:28:33;;;;;;;6.30;2.83;;;;;;;9.88;42.58;102363.19;5077449;28;20024;-71
2021/01/03 09:31:23;;;;;;;10.90;7.32;;;;;;;9.96;42.51;102368.13;5077319;28;20020;-73
2021/01/03 09:34:12;;;;;;;8.43;6.93;;;;;;;9.95;42.93;102363.75;5094794;28;20028;-71
2021/01/03 09:36:59;;;;;;;9.67;7.07;;;;;;;9.96;43.23;102362.66;5077010;28;20427;-71
2021/01/03 09:39:44;;;;;;;6.60;3.77;;;;;;;9.96;43.21;102368.13;5095011;28;20119;-70
2021/01/03 09:42:32;;;;;;;25.37;19.93;;;;;;;9.86;43.68;102368.09;5094943;28;20028;-70
2021/01/03 09:45:04;;;;;;;50.33;42.13;;;;;;;10.02;43.48;102361.59;5077061;28;20439;-70
2021/01/03 09:47:43;;;;;;;14.90;13.60;;;;;;;10.11;43.31;102367.34;5095243;28;20031;-70
2021/01/03 09:50:31;;;;;;;9.87;7.67;;;;;;;10.12;43.56;102368.97;5095032;28;20056;-71
2021/01/03 09:53:09;;;;;;;5.53;3.00;;;;;;;10.39;42.88;102371.50;5095033;28;20032;-75
2021/01/03 09:55:41;;;;;;;8.87;7.97;;;;;;;10.21;43.59;102375.56;5094743;28;20449;-71
2021/01/03 09:58:08;;;;;;;7.30;3.80;;;;;;;10.28;43.45;102380.81;5076718;28;20038;-71
2021/01/03 10:00:54;;;;;;;6.50;4.03;;;;;;;10.51;42.97;102383.00;5097973;28;20153;-71
2021/01/03 10:03:40;;;;;;;9.33;5.23;;;;;;;10.46;43.20;102385.72;5094874;28;20035;-72
2021/01/03 10:06:18;;;;;;;11.20;9.30;;;;;;;10.49;43.01;102374.25;5094830;28;20020;-74
2021/01/03 10:08:46;;;;;;;6.03;4.50;;;;;;;10.60;42.76;102360.59;5093890;28;20032;-90
2021/01/03 10:11:28;;;;;;;7.67;5.57;;;;;;;10.63;42.97;102369.06;5076349;28;20038;-74
2021/01/03 10:13:58;;;;;;;4.93;3.87;;;;;;;10.55;43.05;102372.34;5075903;28;20028;-73
2021/01/03 10:16:28;;;;;;;8.10;7.30;;;;;;;10.56;43.20;102374.78;5075462;28;20507;-75
2021/01/03 10:18:59;;;;;;;6.93;6.00;;;;;;;10.72;42.80;102377.53;5093415;28;20497;-79
2021/01/03 10:21:37;;;;;;;7.57;6.50;;;;;;;10.63;43.22;102380.00;5075243;28;20416;-73
2021/01/03 10:24:09;;;;;;;4.73;3.90;;;;;;;10.47;43.25;102370.97;5075642;28;20024;-78
2021/01/03 10:26:35;;;;;;;9.23;4.07;;;;;;;10.83;42.55;102369.06;5075671;28;20024;-76
2021/01/03 10:29:02;;;;;;;10.23;8.80;;;;;;;11.17;41.83;102370.34;5075805;28;20490;-77
2021/01/03 10:31:45;;;;;;;22.30;18.40;;;;;;;11.13;42.18;102369.28;5093697;28;20032;-77
2021/01/03 10:34:16;;;;;;;10.40;9.03;;;;;;;11.07;42.62;102366.56;5075295;28;20035;-77
2021/01/03 10:36:41;;;;;;;8.17;5.67;;;;;;;11.36;41.66;102372.22;5093238;28;20169;-76
2021/01/03 10:39:09;;;;;;;6.27;2.90;;;;;;;11.35;42.02;102369.78;5075434;28;20542;-79
2021/01/03 10:41:37;;;;;;;4.23;2.73;;;;;;;11.46;41.73;102368.63;5093409;28;20035;-76
2021/01/03 10:44:04;;;;;;;6.33;4.80;;;;;;;11.30;42.11;102367.88;5075272;28;20386;-77
2021/01/03 10:46:30;;;;;;;6.03;2.07;;;;;;;11.47;41.97;102372.19;5092734;28;20500;-77
2021/01/03 10:48:56;;;;;;;5.23;3.67;;;;;;;11.40;42.14;102370.56;5075043;28;20146;-75
2021/01/03 10:51:35;;;;;;;5.93;4.67;;;;;;;11.42;41.72;102361.28;5074704;28;20028;-72
2021/01/03 10:54:02;;;;;;;18.30;13.67;;;;;;;11.71;41.48;102369.63;5093078;28;20024;-73
2021/01/03 10:56:27;;;;;;;2.90;1.33;;;;;;;11.65;41.75;102371.59;5074419;28;20142;-79
2021/01/03 10:58:55;;;;;;;5.83;1.83;;;;;;;11.78;41.70;102361.91;5075372;28;20500;-75
2021/01/03 11:01:22;;;;;;;5.23;1.70;;;;;;;11.86;41.40;102359.47;5092895;28;20118;-74
2021/01/03 11:03:49;;;;;;;6.67;3.33;;;;;;;11.95;41.24;102351.47;5097498;28;20024;-74
2021/01/03 11:06:15;;;;;;;4.30;1.87;;;;;;;11.94;41.22;102361.63;5092584;28;20035;-76
2021/01/03 11:08:40;;;;;;;3.07;1.43;;;;;;;11.88;41.43;102367.41;5092498;28;20016;-82
2021/01/03 11:11:07;;;;;;;3.80;1.53;;;;;;;11.90;41.41;102360.53;5092682;28;20078;-75
2021/01/03 11:13:38;;;;;;;3.77;1.60;;;;;;;11.75;41.52;102357.00;5093607;28;20020;-74
2021/01/03 11:16:03;;;;;;;6.30;2.07;;;;;;;11.97;41.17;102357.47;5093387;28;20047;-76
2021/01/03 11:18:29;;;;;;;10.73;7.70;;;;;;;11.88;41.05;102351.78;5076957;28;20060;-72
2021/01/03 11:20:55;;;;;;;8.50;6.70;;;;;;;11.97;41.12;102349.25;5102035;28;20031;-73
2021/01/03 11:23:20;;;;;;;6.80;3.07;;;;;;;12.01;40.66;102354.97;5101817;28;20020;-73
2021/01/03 11:25:47;;;;;;;4.67;1.63;;;;;;;11.84;41.55;102347.94;5075133;28;20032;-72
2021/01/03 11:28:12;;;;;;;5.37;2.07;;;;;;;12.18;40.43;102342.56;5092601;28;20042;-72
2021/01/03 11:30:44;;;;;;;3.27;1.53;;;;;;;12.40;40.15;102349.53;5080212;28;20107;-75
2021/01/03 11:33:10;;;;;;;4.23;2.50;;;;;;;12.17;40.80;102343.66;5111905;28;20031;-74
2021/01/03 11:35:36;;;;;;;3.37;1.77;;;;;;;12.52;40.01;102346.41;5111881;28;20019;-72
2021/01/03 11:38:02;;;;;;;3.57;1.30;;;;;;;12.56;40.06;102342.00;5111335;28;20502;-73
2021/01/03 11:40:27;;;;;;;4.10;2.00;;;;;;;12.56;40.05;102334.59;5093461;28;20028;-74
2021/01/03 11:42:53;;;;;;;5.67;2.10;;;;;;;12.59;40.10;102342.22;5093535;28;20034;-74
2021/01/03 11:45:21;;;;;;;3.43;1.50;;;;;;;12.74;39.62;102335.78;5111877;28;20038;-74